createdAt,value
2019-04-26T00:00:57.911Z,15.51
2019-04-26T00:03:34.303Z,15.49
2019-04-26T00:06:06.309Z,15.40
2019-04-26T00:08:36.409Z,15.32
2019-04-26T00:11:31.413Z,15.32
2019-04-26T00:14:24.834Z,15.34
2019-04-26T00:17:02.653Z,15.32
2019-04-26T00:19:32.911Z,15.28
2019-04-26T00:22:03.068Z,15.21
2019-04-26T00:24:33.324Z,15.15
2019-04-26T00:27:03.352Z,15.16
2019-04-26T00:29:33.276Z,15.14
2019-04-26T00:32:04.774Z,15.01
2019-04-26T00:34:35.044Z,14.94
2019-04-26T00:37:04.934Z,14.98
2019-04-26T00:39:35.969Z,14.98
2019-04-26T00:42:05.913Z,14.95
2019-04-26T00:44:36.493Z,14.93
2019-04-26T00:47:07.714Z,14.93
2019-04-26T00:49:43.744Z,14.94
2019-04-26T00:52:10.891Z,14.98
2019-04-26T00:54:41.947Z,14.97
2019-04-26T00:57:12.376Z,14.97
2019-04-26T00:59:42.970Z,14.99
2019-04-26T01:02:20.699Z,14.97
2019-04-26T01:04:50.767Z,14.97
2019-04-26T01:07:21.198Z,14.95
2019-04-26T01:09:51.138Z,14.98
2019-04-26T01:12:21.922Z,14.99
2019-04-26T01:14:51.965Z,14.97
2019-04-26T01:17:22.413Z,14.91
2019-04-26T01:19:54.929Z,14.87
2019-04-26T01:22:27.834Z,14.83
2019-04-26T01:25:00.163Z,14.77
2019-04-26T01:27:31.832Z,14.77
2019-04-26T01:30:05.288Z,14.70
2019-04-26T01:32:38.177Z,14.72
2019-04-26T01:35:08.529Z,14.76
2019-04-26T01:37:41.678Z,14.76
2019-04-26T01:40:17.153Z,14.71
2019-04-26T01:43:10.228Z,14.68
2019-04-26T01:45:50.575Z,14.57
2019-04-26T01:48:45.275Z,14.54
2019-04-26T01:51:27.345Z,14.37
2019-04-26T01:53:57.515Z,14.27
2019-04-26T01:56:32.652Z,14.23
2019-04-26T01:59:02.733Z,14.31
2019-04-26T02:01:47.993Z,14.39
2019-04-26T02:04:18.070Z,14.37
2019-04-26T02:06:47.971Z,14.36
2019-04-26T02:09:18.149Z,14.41
2019-04-26T02:11:48.159Z,14.41
2019-04-26T02:14:18.112Z,14.32
2019-04-26T02:16:48.348Z,14.32
2019-04-26T02:19:18.537Z,14.31
2019-04-26T02:21:55.584Z,14.29
2019-04-26T02:24:38.180Z,14.34
2019-04-26T02:27:18.333Z,14.35
2019-04-26T02:29:48.920Z,14.36
2019-04-26T02:32:19.179Z,14.34
2019-04-26T02:34:49.693Z,14.36
2019-04-26T02:37:20.079Z,14.19
2019-04-26T02:39:51.102Z,14.16
2019-04-26T02:42:52.155Z,14.18
2019-04-26T02:46:08.694Z,14.17
2019-04-26T02:49:32.989Z,14.17
2019-04-26T02:52:16.213Z,14.11
2019-04-26T02:54:55.781Z,14.13
2019-04-26T02:57:48.221Z,14.15
2019-04-26T03:00:20.480Z,14.14
2019-04-26T03:02:59.319Z,14.05
2019-04-26T03:05:33.587Z,13.95
2019-04-26T03:08:09.381Z,13.88
2019-04-26T03:10:43.971Z,13.80
2019-04-26T03:13:34.293Z,13.79
2019-04-26T03:16:29.344Z,13.85
2019-04-26T03:19:17.158Z,13.87
2019-04-26T03:22:00.477Z,13.93
2019-04-26T03:24:42.888Z,13.96
2019-04-26T03:27:27.110Z,13.86
2019-04-26T03:30:23.449Z,13.82
2019-04-26T03:33:34.027Z,13.80
2019-04-26T03:36:26.129Z,13.86
2019-04-26T03:39:15.396Z,13.91
2019-04-26T03:42:05.624Z,13.98
2019-04-26T03:44:44.839Z,14.01
2019-04-26T03:47:19.166Z,14.02
2019-04-26T03:50:15.505Z,14.03
2019-04-26T03:53:35.549Z,14.04
2019-04-26T03:57:08.627Z,14.06
2019-04-26T04:00:22.087Z,13.93
2019-04-26T04:03:37.493Z,13.91
2019-04-26T04:06:11.279Z,13.92
2019-04-26T04:08:50.068Z,13.94
2019-04-26T04:11:24.290Z,13.96
2019-04-26T04:14:00.391Z,14.00
2019-04-26T04:17:09.478Z,14.04
2019-04-26T04:20:18.086Z,14.08
2019-04-26T04:22:53.830Z,14.10
2019-04-26T04:25:31.351Z,14.14
2019-04-26T04:28:26.198Z,14.16
2019-04-26T04:31:16.290Z,14.18
2019-04-26T04:33:52.716Z,14.18
2019-04-26T04:36:33.296Z,14.19
2019-04-26T04:39:14.189Z,14.22
2019-04-26T04:42:05.229Z,14.23
2019-04-26T04:45:06.434Z,14.22
2019-04-26T04:47:52.529Z,14.22
2019-04-26T04:50:38.632Z,14.23
2019-04-26T04:53:38.267Z,14.23
2019-04-26T04:56:29.675Z,14.22
2019-04-26T04:59:03.201Z,14.19
2019-04-26T05:02:30.522Z,14.18
2019-04-26T05:05:29.180Z,14.18
2019-04-26T05:08:24.640Z,14.18
2019-04-26T05:11:04.582Z,14.18
2019-04-26T05:13:45.209Z,14.19
2019-04-26T05:16:45.536Z,14.17
2019-04-26T05:19:46.870Z,14.15
2019-04-26T05:22:41.370Z,14.15
2019-04-26T05:25:48.023Z,14.16
2019-04-26T05:28:51.729Z,14.18
2019-04-26T05:31:33.307Z,14.17
2019-04-26T05:34:39.368Z,14.17
2019-04-26T05:38:18.389Z,14.15
2019-04-26T05:40:58.229Z,14.16
2019-04-26T05:44:06.124Z,14.20
2019-04-26T05:47:23.303Z,14.22
2019-04-26T05:50:44.040Z,14.21
2019-04-26T05:54:04.083Z,14.17
2019-04-26T05:56:54.348Z,14.13
2019-04-26T05:59:48.732Z,14.09
2019-04-26T06:03:13.988Z,14.14
2019-04-26T06:06:25.231Z,14.18
2019-04-26T06:09:37.216Z,14.22
2019-04-26T06:12:18.884Z,14.26
2019-04-26T06:15:23.251Z,14.27
2019-04-26T06:18:20.212Z,14.31
2019-04-26T06:21:14.384Z,14.35
2019-04-26T06:24:19.277Z,14.29
2019-04-26T06:27:22.626Z,14.29
2019-04-26T06:30:06.404Z,14.27
2019-04-26T06:33:05.563Z,14.24
2019-04-26T06:35:37.548Z,14.26
2019-04-26T06:39:04.302Z,14.21
2019-04-26T06:42:21.958Z,14.20
2019-04-26T06:45:46.758Z,14.19
2019-04-26T06:48:40.628Z,13.96
2019-04-26T06:51:24.703Z,13.96
2019-04-26T06:54:20.727Z,13.85
2019-04-26T06:57:18.472Z,13.87
2019-04-26T07:00:10.781Z,13.90
2019-04-26T07:03:13.794Z,13.91
2019-04-26T07:05:47.832Z,13.86
2019-04-26T07:09:02.184Z,13.86
2019-04-26T07:12:51.318Z,13.82
2019-04-26T07:15:42.247Z,13.86
2019-04-26T07:18:35.931Z,13.87
2019-04-26T07:21:17.992Z,13.89
2019-04-26T07:24:31.218Z,13.92
2019-04-26T07:27:17.906Z,13.94
2019-04-26T07:30:25.101Z,13.97
2019-04-26T07:33:34.174Z,13.92
2019-04-26T07:36:50.667Z,13.84
2019-04-26T07:39:55.510Z,13.73
2019-04-26T07:42:59.083Z,13.78
2019-04-26T07:45:53.651Z,13.68
2019-04-26T07:48:55.263Z,13.70
2019-04-26T07:52:15.338Z,13.62
2019-04-26T07:55:14.492Z,13.66
2019-04-26T07:58:27.766Z,13.63
2019-04-26T08:01:09.948Z,13.58
2019-04-26T08:03:52.592Z,13.63
2019-04-26T08:06:43.028Z,13.54
2019-04-26T08:09:26.433Z,13.54
2019-04-26T08:11:51.694Z,13.55
2019-04-26T08:14:36.580Z,13.56
2019-04-26T08:17:40.270Z,13.68
2019-04-26T08:20:28.204Z,13.76
2019-04-26T08:23:02.659Z,13.83
2019-04-26T08:25:34.652Z,13.85
2019-04-26T08:28:08.426Z,13.75
2019-04-26T08:30:44.884Z,13.78
2019-04-26T08:33:18.201Z,13.69
2019-04-26T08:35:53.230Z,13.72
2019-04-26T08:38:23.415Z,13.78
2019-04-26T08:40:54.032Z,13.79
2019-04-26T08:43:50.040Z,13.73
2019-04-26T08:46:43.329Z,13.78
2019-04-26T08:49:54.827Z,13.85
2019-04-26T08:52:29.650Z,13.88
2019-04-26T08:55:02.484Z,13.90
2019-04-26T08:57:36.756Z,13.92
2019-04-26T09:00:15.360Z,13.92
2019-04-26T09:03:11.750Z,13.89
2019-04-26T09:06:01.096Z,13.90
2019-04-26T09:08:39.206Z,13.91
2019-04-26T09:11:09.451Z,13.97
2019-04-26T09:13:42.705Z,13.98
2019-04-26T09:16:15.201Z,13.93
2019-04-26T09:18:52.447Z,13.96
2019-04-26T09:21:20.278Z,14.06
2019-04-26T09:24:25.153Z,14.17
2019-04-26T09:27:08.564Z,14.16
2019-04-26T09:30:06.134Z,14.22
2019-04-26T09:32:58.309Z,14.25
2019-04-26T09:35:27.334Z,14.21
2019-04-26T09:37:57.395Z,14.17
2019-04-26T09:40:27.645Z,14.12
2019-04-26T09:43:22.571Z,13.99
2019-04-26T09:46:15.753Z,13.98
2019-04-26T09:48:51.993Z,13.99
2019-04-26T09:51:21.938Z,13.94
2019-04-26T09:53:52.397Z,13.83
2019-04-26T09:56:22.155Z,13.79
2019-04-26T09:58:52.161Z,13.73
2019-04-26T10:01:24.135Z,13.69
2019-04-26T10:03:54.064Z,13.66
2019-04-26T10:06:26.067Z,13.71
2019-04-26T10:08:57.161Z,13.70
2019-04-26T10:11:31.606Z,13.72
2019-04-26T10:14:12.097Z,13.81
2019-04-26T10:16:48.693Z,13.86
2019-04-26T10:19:48.629Z,13.93
2019-04-26T10:22:18.627Z,14.02
2019-04-26T10:24:49.684Z,14.09
2019-04-26T10:27:19.633Z,14.17
2019-04-26T10:29:49.631Z,14.16
2019-04-26T10:32:21.873Z,14.18
2019-04-26T10:34:53.449Z,14.26
2019-04-26T10:37:23.850Z,14.19
2019-04-26T10:39:53.964Z,14.13
2019-04-26T10:42:25.119Z,14.16
2019-04-26T10:44:55.948Z,14.19
2019-04-26T10:47:26.094Z,14.24
2019-04-26T10:49:58.165Z,14.33
2019-04-26T10:52:37.407Z,14.41
2019-04-26T10:55:27.216Z,14.42
2019-04-26T10:58:04.800Z,14.51
2019-04-26T11:00:38.505Z,14.55
2019-04-26T11:03:08.584Z,14.61
2019-04-26T11:08:28.092Z,14.85
2019-04-26T11:10:58.359Z,14.86
2019-04-26T11:13:28.440Z,14.98
2019-04-26T11:15:58.399Z,15.03
2019-04-26T11:18:28.667Z,15.06
2019-04-26T11:20:58.713Z,15.10
2019-04-26T11:23:28.782Z,15.15
2019-04-26T11:26:02.901Z,15.18
2019-04-26T11:28:33.044Z,15.14
2019-04-26T11:31:04.440Z,15.14
2019-04-26T11:33:44.404Z,15.11
2019-04-26T11:36:07.349Z,15.07
2019-04-26T11:38:38.587Z,15.13
2019-04-26T11:41:08.701Z,15.20
2019-04-26T11:43:38.666Z,15.26
2019-04-26T11:46:08.718Z,15.29
2019-04-26T11:48:39.132Z,15.32
2019-04-26T11:51:09.140Z,15.31
2019-04-26T11:53:40.527Z,15.39
2019-04-26T11:56:10.822Z,15.34
2019-04-26T11:58:40.687Z,15.34
2019-04-26T12:01:12.183Z,15.43
2019-04-26T12:03:46.856Z,15.61
2019-04-26T12:06:38.490Z,15.74
2019-04-26T12:09:16.893Z,15.87
2019-04-26T12:11:50.871Z,16.04
2019-04-26T12:14:20.536Z,16.13
2019-04-26T12:16:55.011Z,16.12
2019-04-26T12:19:22.752Z,16.06
2019-04-26T12:21:52.617Z,16.14
2019-04-26T12:24:25.320Z,16.09
2019-04-26T12:29:25.962Z,16.01
2019-04-26T12:29:53.564Z,16.03
2019-04-26T12:31:55.990Z,15.99
2019-04-26T12:34:25.847Z,16.01
2019-04-26T12:36:56.188Z,16.09
2019-04-26T12:39:26.128Z,16.17
2019-04-26T12:41:56.216Z,16.33
2019-04-26T12:44:32.121Z,16.44
2019-04-26T12:47:11.150Z,16.51
2019-04-26T12:49:41.127Z,16.57
2019-04-26T12:52:11.065Z,16.64
2019-04-26T12:54:43.124Z,16.78
2019-04-26T12:57:16.289Z,16.88
2019-04-26T12:59:46.041Z,16.92
2019-04-26T13:02:16.587Z,16.97
2019-04-26T13:04:47.588Z,16.99
2019-04-26T13:07:23.878Z,17.04
2019-04-26T13:10:09.569Z,17.06
2019-04-26T13:13:01.811Z,17.00
2019-04-26T13:16:01.968Z,17.01
2019-04-26T13:18:31.962Z,17.02
2019-04-26T13:21:03.099Z,17.10
2019-04-26T13:23:33.619Z,17.15
2019-04-26T13:26:03.563Z,17.20
2019-04-26T13:28:33.543Z,17.25
2019-04-26T13:31:03.476Z,17.34
2019-04-26T13:33:33.457Z,17.35
2019-04-26T13:36:04.715Z,17.39
2019-04-26T13:38:39.393Z,17.36
2019-04-26T13:41:07.660Z,17.46
2019-04-26T13:43:37.605Z,17.51
2019-04-26T13:46:24.432Z,17.55
2019-04-26T13:49:07.196Z,17.56
2019-04-26T13:51:37.289Z,17.54
2019-04-26T13:54:07.253Z,17.53
2019-04-26T13:56:37.592Z,17.55
2019-04-26T13:59:07.755Z,17.57
2019-04-26T14:01:37.919Z,17.65
2019-04-26T14:04:08.981Z,17.74
2019-04-26T14:06:40.782Z,17.85
2019-04-26T14:09:13.065Z,17.99
2019-04-26T14:11:43.164Z,18.16
2019-04-26T14:14:13.549Z,18.40
2019-04-26T14:16:44.069Z,18.49
2019-04-26T14:19:15.537Z,18.59
2019-04-26T14:21:45.820Z,18.77
2019-04-26T14:24:46.854Z,18.90
2019-04-26T14:27:20.600Z,19.05
2019-04-26T14:29:50.565Z,19.03
2019-04-26T14:32:22.894Z,18.87
2019-04-26T14:34:53.430Z,18.75
2019-04-26T14:37:24.506Z,18.64
2019-04-26T14:39:55.288Z,18.70
2019-04-26T14:42:35.206Z,18.76
2019-04-26T14:44:58.018Z,18.67
2019-04-26T14:47:30.493Z,18.75
2019-04-26T14:49:59.519Z,18.76
2019-04-26T14:52:32.460Z,18.75
2019-04-26T14:55:02.436Z,18.71
2019-04-26T14:57:33.934Z,18.70
2019-04-26T15:00:05.078Z,18.75
2019-04-26T15:02:50.252Z,18.75
2019-04-26T15:05:27.577Z,18.71
2019-04-26T15:07:57.574Z,18.67
2019-04-26T15:10:45.910Z,18.62
2019-04-26T15:13:17.023Z,18.58
2019-04-26T15:15:39.949Z,18.55
2019-04-26T15:18:09.897Z,18.56
2019-04-26T15:20:40.265Z,18.55
2019-04-26T15:23:10.228Z,18.63
2019-04-26T15:25:41.324Z,18.73
2019-04-26T15:28:14.585Z,18.82
2019-04-26T15:30:46.913Z,18.91
2019-04-26T15:33:15.639Z,19.00
2019-04-26T15:35:46.641Z,19.03
2019-04-26T15:38:16.896Z,19.10
2019-04-26T15:41:24.034Z,19.21
2019-04-26T15:44:13.603Z,19.23
2019-04-26T15:46:55.598Z,19.26
2019-04-26T15:49:43.254Z,19.33
2019-04-26T15:52:13.211Z,19.40
2019-04-26T15:54:43.203Z,19.50
2019-04-26T15:57:13.213Z,19.54
2019-04-26T15:59:43.408Z,19.61
2019-04-26T16:02:13.597Z,19.66
2019-04-26T16:04:47.355Z,19.70
2019-04-26T16:07:27.007Z,19.70
2019-04-26T16:09:49.365Z,19.66
2019-04-26T16:12:20.311Z,19.58
2019-04-26T16:14:51.995Z,19.44
2019-04-26T16:17:21.985Z,19.25
2019-04-26T16:19:52.353Z,19.14
2019-04-26T16:22:25.902Z,19.02
2019-04-26T16:24:54.009Z,18.88
2019-04-26T16:27:24.618Z,18.83
2019-04-26T16:30:17.764Z,18.72
2019-04-26T16:33:07.609Z,18.69
2019-04-26T16:35:37.619Z,18.66
2019-04-26T16:38:26.313Z,18.63
2019-04-26T16:40:56.282Z,18.61
2019-04-26T16:43:36.663Z,18.64
2019-04-26T16:45:57.956Z,18.65
2019-04-26T16:48:27.943Z,18.64
2019-04-26T16:51:00.888Z,18.59
2019-04-26T16:53:46.322Z,18.60
2019-04-26T16:56:03.705Z,18.63
2019-04-26T16:58:38.296Z,18.63
2019-04-26T17:01:10.128Z,18.62
2019-04-26T17:03:43.947Z,18.60
2019-04-26T17:06:14.114Z,18.50
2019-04-26T17:08:49.125Z,18.35
2019-04-26T17:11:14.451Z,18.35
2019-04-26T17:13:50.569Z,18.34
2019-04-26T17:16:16.019Z,18.34
2019-04-26T17:18:45.902Z,18.31
2019-04-26T17:21:21.628Z,18.27
2019-04-26T17:24:09.774Z,18.26
2019-04-26T17:26:44.020Z,18.22
2019-04-26T17:29:13.974Z,18.15
2019-04-26T17:31:44.293Z,18.09
2019-04-26T17:34:14.241Z,18.06
2019-04-26T17:36:46.337Z,18.02
2019-04-26T17:39:17.240Z,17.98
2019-04-26T17:41:50.608Z,17.98
2019-04-26T17:44:26.083Z,17.95
2019-04-26T17:46:56.302Z,17.92
2019-04-26T17:49:27.383Z,17.82
2019-04-26T17:51:58.073Z,17.78
2019-04-26T17:54:43.853Z,17.77
2019-04-26T17:56:59.485Z,17.76
2019-04-26T17:59:33.895Z,17.75
2019-04-26T18:02:01.467Z,17.73
2019-04-26T18:04:36.893Z,17.73
2019-04-26T18:07:22.344Z,17.72
2019-04-26T18:09:44.726Z,17.71
2019-04-26T18:12:07.936Z,17.70
2019-04-26T18:14:38.479Z,17.67
2019-04-26T18:17:20.485Z,17.67
2019-04-26T18:20:00.708Z,17.64
2019-04-26T18:22:45.027Z,17.59
2019-04-26T18:25:15.084Z,17.55
2019-04-26T18:27:45.035Z,17.49
2019-04-26T18:30:15.514Z,17.44
2019-04-26T18:32:47.696Z,17.40
2019-04-26T18:35:17.298Z,17.32
2019-04-26T18:37:47.236Z,17.27
2019-04-26T18:40:17.255Z,17.22
2019-04-26T18:42:47.516Z,17.17
2019-04-26T18:45:25.629Z,17.11
2019-04-26T18:47:49.528Z,17.06
2019-04-26T18:50:19.535Z,17.03
2019-04-26T18:53:05.826Z,16.99
2019-04-26T18:55:36.103Z,16.92
2019-04-26T18:58:06.007Z,16.84
2019-04-26T19:00:38.345Z,16.76
2019-04-26T19:03:09.734Z,16.68
2019-04-26T19:05:39.766Z,16.59
2019-04-26T19:08:10.418Z,16.53
2019-04-26T19:10:40.470Z,16.48
2019-04-26T19:13:36.799Z,16.40
2019-04-26T19:16:23.753Z,16.37
2019-04-26T19:19:23.118Z,16.34
2019-04-26T19:21:54.797Z,16.30
2019-04-26T19:24:24.668Z,16.23
2019-04-26T19:26:54.649Z,16.18
2019-04-26T19:29:32.656Z,16.17
2019-04-26T19:32:01.416Z,16.16
2019-04-26T19:34:30.140Z,16.15
2019-04-26T19:37:01.624Z,16.11
2019-04-26T19:39:35.529Z,16.07
2019-04-26T19:42:06.260Z,16.04
2019-04-26T19:44:36.375Z,16.02
2019-04-26T19:47:28.351Z,15.99
2019-04-26T19:50:25.905Z,15.95
2019-04-26T19:53:03.038Z,15.91
2019-04-26T19:55:41.903Z,15.86
2019-04-26T19:58:20.084Z,15.83
2019-04-26T20:00:47.012Z,15.79
2019-04-26T20:03:17.104Z,15.77
2019-04-26T20:05:48.480Z,15.72
2019-04-26T20:08:18.686Z,15.67
2019-04-26T20:10:49.011Z,15.67
2019-04-26T20:13:19.295Z,15.62
2019-04-26T20:15:52.806Z,15.61
2019-04-26T20:18:21.455Z,15.60
2019-04-26T20:20:52.140Z,15.57
2019-04-26T20:23:22.927Z,15.52
2019-04-26T20:25:53.126Z,15.51
2019-04-26T20:28:23.702Z,15.48
2019-04-26T20:31:12.963Z,15.45
2019-04-26T20:33:42.925Z,15.40
2019-04-26T20:36:13.158Z,15.37
2019-04-26T20:38:47.296Z,15.36
2019-04-26T20:41:15.098Z,15.29
2019-04-26T20:43:52.387Z,15.28
2019-04-26T20:46:17.754Z,15.23
2019-04-26T20:48:48.053Z,15.22
2019-04-26T20:51:18.539Z,15.18
2019-04-26T20:53:49.236Z,15.12
2019-04-26T20:56:19.097Z,15.12
2019-04-26T20:58:49.621Z,15.10
2019-04-26T21:01:19.640Z,15.10
2019-04-26T21:03:51.615Z,15.13
2019-04-26T21:06:22.409Z,15.14
2019-04-26T21:08:54.153Z,15.04
2019-04-26T21:11:25.324Z,15.04
2019-04-26T21:13:55.084Z,15.03
2019-04-26T21:16:25.335Z,15.01
2019-04-26T21:18:55.606Z,14.99
2019-04-26T21:21:25.536Z,14.98
2019-04-26T21:23:55.472Z,14.96
2019-04-26T21:26:46.628Z,14.96
2019-04-26T21:29:35.430Z,14.93
2019-04-26T21:32:16.285Z,14.96
2019-04-26T21:34:50.761Z,14.98
2019-04-26T21:37:29.150Z,15.01
2019-04-26T21:40:26.118Z,15.03
2019-04-26T21:42:59.652Z,15.07
2019-04-26T21:45:30.948Z,15.07
2019-04-26T21:48:02.654Z,15.07
2019-04-26T21:50:35.797Z,15.06
2019-04-26T21:53:06.895Z,15.08
2019-04-26T21:55:38.721Z,15.02
2019-04-26T21:58:07.273Z,14.97
2019-04-26T22:01:03.408Z,14.97
2019-04-26T22:03:34.915Z,14.99
2019-04-26T22:06:05.075Z,14.99
2019-04-26T22:08:37.804Z,14.99
2019-04-26T22:11:07.972Z,14.98
2019-04-26T22:13:45.647Z,14.99
2019-04-26T22:16:31.977Z,15.00
2019-04-26T22:19:04.427Z,15.00
2019-04-26T22:21:52.732Z,15.00
2019-04-26T22:24:29.677Z,14.99
2019-04-26T22:26:59.628Z,14.99
2019-04-26T22:29:29.520Z,14.98
2019-04-26T22:31:59.775Z,14.98
2019-04-26T22:34:29.861Z,14.95
2019-04-26T22:37:01.772Z,14.93
2019-04-26T22:39:39.412Z,14.90
2019-04-26T22:42:03.905Z,14.86
2019-04-26T22:44:43.494Z,14.85
2019-04-26T22:47:33.892Z,14.84
2019-04-26T22:50:03.428Z,14.81
2019-04-26T22:52:33.758Z,14.81
2019-04-26T22:55:06.153Z,14.74
2019-04-26T22:57:35.922Z,14.73
2019-04-26T23:00:07.170Z,14.73
2019-04-26T23:02:38.646Z,14.75
2019-04-26T23:05:08.700Z,14.71
2019-04-26T23:07:38.920Z,14.71
2019-04-26T23:10:10.790Z,14.73
2019-04-26T23:12:53.989Z,14.71
2019-04-26T23:15:43.282Z,14.72
2019-04-26T23:18:30.254Z,14.71
2019-04-26T23:21:07.810Z,14.71
2019-04-26T23:23:40.946Z,14.72
2019-04-26T23:26:10.163Z,14.71
2019-04-26T23:28:40.113Z,14.72
2019-04-26T23:31:10.045Z,14.72
2019-04-26T23:33:40.004Z,14.73
2019-04-26T23:36:09.867Z,14.72
2019-04-26T23:38:39.885Z,14.70
2019-04-26T23:41:09.815Z,14.67
2019-04-26T23:43:39.698Z,14.66
2019-04-26T23:46:09.563Z,14.64
2019-04-26T23:48:42.727Z,14.61
2019-04-26T23:51:12.185Z,14.52
2019-04-26T23:53:42.859Z,14.50
2019-04-26T23:56:16.244Z,14.47
2019-04-26T23:58:45.745Z,14.42
